createdAt,value
2023-01-23T00:00:54.621Z,2.00
2023-01-23T00:03:21.671Z,2.00
2023-01-23T00:06:01.797Z,2.00
2023-01-23T00:08:29.283Z,2.00
2023-01-23T00:10:56.111Z,2.00
2023-01-23T00:13:22.923Z,2.00
2023-01-23T00:15:49.959Z,2.00
2023-01-23T00:18:16.776Z,1.90
2023-01-23T00:20:43.683Z,2.00
2023-01-23T00:23:10.933Z,1.90
2023-01-23T00:25:37.983Z,2.00
2023-01-23T00:28:04.863Z,2.00
2023-01-23T00:30:31.997Z,2.00
2023-01-23T00:32:58.894Z,2.00
2023-01-23T00:35:25.655Z,2.00
2023-01-23T00:37:52.455Z,2.00
2023-01-23T00:40:19.629Z,2.10
2023-01-23T00:42:46.640Z,2.10
2023-01-23T00:45:13.615Z,2.00
2023-01-23T00:47:40.353Z,2.00
2023-01-23T00:50:07.476Z,1.90
2023-01-23T00:52:36.636Z,1.90
2023-01-23T00:55:03.724Z,1.90
2023-01-23T00:57:30.774Z,1.90
2023-01-23T00:59:57.647Z,1.90
2023-01-23T01:02:27.248Z,1.90
2023-01-23T01:04:54.131Z,1.80
2023-01-23T01:07:21.037Z,1.90
2023-01-23T01:09:47.850Z,1.80
2023-01-23T01:12:14.596Z,1.90
2023-01-23T01:14:41.328Z,2.00
2023-01-23T01:17:08.295Z,2.00
2023-01-23T01:19:35.158Z,2.00
2023-01-23T01:22:02.157Z,2.00
2023-01-23T01:24:31.746Z,2.10
2023-01-23T01:26:58.630Z,2.00
2023-01-23T01:29:28.504Z,2.00
2023-01-23T01:31:55.399Z,2.00
2023-01-23T01:34:23.614Z,2.00
2023-01-23T01:36:51.735Z,2.00
2023-01-23T01:39:18.432Z,2.10
2023-01-23T01:41:45.474Z,2.00
2023-01-23T01:44:17.397Z,2.00
2023-01-23T01:46:45.907Z,2.00
2023-01-23T01:49:12.667Z,2.00
2023-01-23T01:51:39.432Z,2.00
2023-01-23T01:54:16.838Z,2.10
2023-01-23T01:56:47.532Z,2.00
2023-01-23T01:59:15.420Z,2.00
2023-01-23T02:01:42.651Z,2.10
2023-01-23T02:04:09.892Z,2.10
2023-01-23T02:06:36.622Z,2.10
2023-01-23T02:09:05.790Z,2.00
2023-01-23T02:11:32.716Z,2.00
2023-01-23T02:13:59.622Z,2.00
2023-01-23T02:16:29.437Z,2.10
2023-01-23T02:18:58.894Z,2.10
2023-01-23T02:21:25.654Z,2.00
2023-01-23T02:23:52.390Z,2.00
2023-01-23T02:26:22.135Z,1.90
2023-01-23T02:28:51.713Z,1.90
2023-01-23T02:31:18.574Z,1.90
2023-01-23T02:33:48.480Z,1.90
2023-01-23T02:36:15.159Z,1.90
2023-01-23T02:38:54.721Z,1.90
2023-01-23T02:43:47.310Z,1.90
2023-01-23T02:46:15.721Z,1.90
2023-01-23T02:48:43.821Z,1.90
2023-01-23T02:51:10.601Z,1.90
2023-01-23T02:53:39.366Z,1.90
2023-01-23T02:56:06.328Z,1.80
2023-01-23T02:58:51.745Z,1.90
2023-01-23T03:01:21.431Z,1.90
2023-01-23T03:03:51.551Z,1.90
2023-01-23T03:06:18.374Z,1.80
2023-01-23T03:08:47.947Z,1.80
2023-01-23T03:11:15.535Z,1.80
2023-01-23T03:13:42.253Z,1.80
2023-01-23T03:16:09.656Z,1.80
2023-01-23T03:18:52.952Z,1.80
2023-01-23T03:21:20.647Z,1.80
2023-01-23T03:23:48.429Z,1.80
2023-01-23T03:26:15.965Z,1.80
2023-01-23T03:29:01.123Z,1.80
2023-01-23T03:31:28.044Z,1.80
2023-01-23T03:33:57.060Z,1.80
2023-01-23T03:36:23.907Z,1.80
2023-01-23T03:39:09.305Z,1.80
2023-01-23T03:41:42.006Z,1.80
2023-01-23T03:44:09.264Z,1.80
2023-01-23T03:46:36.252Z,1.80
2023-01-23T03:49:03.223Z,1.70
2023-01-23T03:51:29.984Z,1.70
2023-01-23T03:53:56.634Z,1.70
2023-01-23T03:56:23.414Z,1.60
2023-01-23T03:58:50.162Z,1.60
2023-01-23T04:01:19.962Z,1.60
2023-01-23T04:03:46.750Z,1.60
2023-01-23T04:06:13.605Z,1.60
2023-01-23T04:08:40.288Z,1.60
2023-01-23T04:11:07.955Z,1.60
2023-01-23T04:13:34.956Z,1.60
2023-01-23T04:16:02.222Z,1.60
2023-01-23T04:18:29.092Z,1.60
2023-01-23T04:20:55.977Z,1.60
2023-01-23T04:23:26.012Z,1.70
2023-01-23T04:25:55.535Z,1.70
2023-01-23T04:28:22.547Z,1.70
2023-01-23T04:30:50.117Z,1.70
2023-01-23T04:33:17.523Z,1.70
2023-01-23T04:35:53.290Z,1.80
2023-01-23T04:38:20.356Z,1.80
2023-01-23T04:40:47.938Z,1.70
2023-01-23T04:43:14.689Z,1.70
2023-01-23T04:45:41.777Z,1.60
2023-01-23T04:48:08.552Z,1.60
2023-01-23T04:50:35.525Z,1.60
2023-01-23T04:53:02.655Z,1.60
2023-01-23T04:55:29.491Z,1.50
2023-01-23T04:57:59.277Z,1.40
2023-01-23T05:00:26.435Z,1.30
2023-01-23T05:02:53.183Z,1.30
2023-01-23T05:05:22.929Z,1.20
2023-01-23T05:07:49.928Z,1.20
2023-01-23T05:10:16.931Z,1.20
2023-01-23T05:12:43.843Z,1.10
2023-01-23T05:15:11.093Z,1.10
2023-01-23T05:17:38.208Z,1.10
2023-01-23T05:20:05.489Z,1.10
2023-01-23T05:22:32.314Z,1.20
2023-01-23T05:24:59.222Z,1.30
2023-01-23T05:27:25.993Z,1.30
2023-01-23T05:29:52.730Z,1.40
2023-01-23T05:32:19.538Z,1.40
2023-01-23T05:34:46.189Z,1.60
2023-01-23T05:37:12.926Z,1.60
2023-01-23T05:39:39.653Z,1.60
2023-01-23T05:42:12.966Z,1.60
2023-01-23T05:44:39.751Z,1.60
2023-01-23T05:47:06.463Z,1.60
2023-01-23T05:49:33.096Z,1.60
2023-01-23T05:51:59.828Z,1.60
2023-01-23T05:54:26.685Z,1.60
2023-01-23T05:56:53.446Z,1.50
2023-01-23T05:59:20.166Z,1.50
2023-01-23T06:01:46.889Z,1.50
2023-01-23T06:04:16.274Z,1.50
2023-01-23T06:06:43.411Z,1.50
2023-01-23T06:09:13.467Z,1.50
2023-01-23T06:11:40.256Z,1.50
2023-01-23T06:14:06.902Z,1.60
2023-01-23T06:16:33.600Z,1.60
2023-01-23T06:19:00.281Z,1.60
2023-01-23T06:21:33.032Z,1.50
2023-01-23T06:23:59.827Z,1.50
2023-01-23T06:26:26.589Z,1.60
2023-01-23T06:28:53.234Z,1.50
2023-01-23T06:31:22.421Z,1.50
2023-01-23T06:33:49.814Z,1.50
2023-01-23T06:36:16.581Z,1.50
2023-01-23T06:38:43.464Z,1.50
2023-01-23T06:41:10.240Z,1.60
2023-01-23T06:43:36.885Z,1.50
2023-01-23T06:46:03.615Z,1.50
2023-01-23T06:48:30.293Z,1.50
2023-01-23T06:50:59.791Z,1.50
2023-01-23T06:53:27.216Z,1.50
2023-01-23T06:55:53.878Z,1.50
2023-01-23T06:58:20.460Z,1.50
2023-01-23T07:00:47.061Z,1.50
2023-01-23T07:03:15.001Z,1.50
2023-01-23T07:05:43.490Z,1.50
2023-01-23T07:08:10.442Z,1.50
2023-01-23T07:10:37.798Z,1.50
2023-01-23T07:13:04.951Z,1.50
2023-01-23T07:15:31.940Z,1.50
2023-01-23T07:17:58.771Z,1.50
2023-01-23T07:20:28.552Z,1.50
2023-01-23T07:22:57.772Z,1.50
2023-01-23T07:25:25.276Z,1.50
2023-01-23T07:27:52.041Z,1.60
2023-01-23T07:30:19.182Z,1.60
2023-01-23T07:32:46.142Z,1.60
2023-01-23T07:35:12.885Z,1.60
2023-01-23T07:37:39.665Z,1.60
2023-01-23T07:40:06.547Z,1.60
2023-01-23T07:42:33.308Z,1.70
2023-01-23T07:45:00.017Z,1.80
2023-01-23T07:47:26.721Z,1.90
2023-01-23T07:49:56.109Z,1.80
2023-01-23T07:52:22.916Z,1.80
2023-01-23T07:54:52.239Z,1.90
2023-01-23T07:57:18.907Z,2.00
2023-01-23T07:59:47.071Z,1.90
2023-01-23T08:02:13.881Z,1.80
2023-01-23T08:04:42.953Z,1.90
2023-01-23T08:07:09.780Z,1.80
2023-01-23T08:09:36.467Z,1.80
2023-01-23T08:12:03.238Z,1.80
2023-01-23T08:14:32.493Z,1.90
2023-01-23T08:16:59.508Z,1.90
2023-01-23T08:19:27.312Z,1.90
2023-01-23T08:21:54.035Z,1.80
2023-01-23T08:24:21.157Z,1.80
2023-01-23T08:26:47.815Z,1.80
2023-01-23T08:29:14.593Z,1.90
2023-01-23T08:31:41.449Z,2.00
2023-01-23T08:34:08.225Z,2.10
2023-01-23T08:36:34.977Z,2.10
2023-01-23T08:39:01.649Z,2.10
2023-01-23T08:41:28.380Z,2.10
2023-01-23T08:43:54.994Z,2.10
2023-01-23T08:46:21.671Z,2.10
2023-01-23T08:48:48.284Z,2.10
2023-01-23T08:51:15.161Z,2.00
2023-01-23T08:53:41.999Z,2.10
2023-01-23T08:56:14.389Z,2.20
2023-01-23T08:58:43.093Z,2.20
2023-01-23T09:01:17.142Z,2.30
2023-01-23T09:03:43.920Z,2.30
2023-01-23T09:06:12.032Z,2.40
2023-01-23T09:08:39.699Z,2.40
2023-01-23T09:11:07.091Z,2.40
2023-01-23T09:13:34.102Z,2.50
2023-01-23T09:16:01.253Z,2.40
2023-01-23T09:18:28.121Z,2.50
2023-01-23T09:20:55.357Z,2.40
2023-01-23T09:23:22.232Z,2.50
2023-01-23T09:25:49.131Z,2.50
2023-01-23T09:28:16.077Z,2.50
2023-01-23T09:30:43.202Z,2.60
2023-01-23T09:33:09.856Z,2.60
2023-01-23T09:35:36.485Z,2.60
2023-01-23T09:38:06.724Z,2.70
2023-01-23T09:40:33.440Z,2.80
2023-01-23T09:43:08.775Z,2.80
2023-01-23T09:45:36.703Z,2.80
2023-01-23T09:48:06.302Z,2.90
2023-01-23T09:50:36.285Z,2.90
2023-01-23T09:53:11.930Z,2.90
2023-01-23T09:55:41.703Z,2.90
2023-01-23T09:58:27.124Z,2.80
2023-01-23T10:00:53.890Z,2.80
2023-01-23T10:03:23.640Z,2.80
2023-01-23T10:06:04.370Z,2.80
2023-01-23T10:08:49.646Z,2.90
2023-01-23T10:11:16.268Z,3.00
2023-01-23T10:13:55.690Z,3.00
2023-01-23T10:16:48.470Z,3.10
2023-01-23T10:19:22.409Z,3.20
2023-01-23T10:22:03.368Z,3.20
2023-01-23T10:24:45.734Z,3.20
2023-01-23T10:27:32.599Z,3.20
2023-01-23T10:30:00.756Z,3.10
2023-01-23T10:32:28.867Z,3.20
2023-01-23T10:34:55.606Z,3.30
2023-01-23T10:37:42.528Z,3.30
2023-01-23T10:40:14.288Z,3.40
2023-01-23T10:42:41.120Z,3.50
2023-01-23T10:45:13.534Z,3.60
2023-01-23T10:47:46.368Z,3.70
2023-01-23T10:50:15.337Z,3.80
2023-01-23T10:52:43.988Z,3.90
2023-01-23T10:55:20.296Z,3.80
2023-01-23T10:57:48.952Z,3.80
2023-01-23T11:00:27.404Z,3.80
2023-01-23T11:02:54.424Z,3.90
2023-01-23T11:05:50.703Z,3.90
2023-01-23T11:08:27.140Z,4.00
2023-01-23T11:10:54.180Z,4.00
2023-01-23T11:13:30.309Z,4.00
2023-01-23T11:15:57.505Z,4.10
2023-01-23T11:18:32.860Z,4.10
2023-01-23T11:20:59.689Z,3.90
2023-01-23T11:23:26.878Z,3.80
2023-01-23T11:25:54.626Z,3.80
2023-01-23T11:28:26.984Z,3.80
2023-01-23T11:31:03.744Z,4.00
2023-01-23T11:33:47.698Z,4.10
2023-01-23T11:36:17.493Z,4.20
2023-01-23T11:39:03.072Z,4.20
2023-01-23T11:41:31.342Z,4.20
2023-01-23T11:43:57.937Z,4.30
2023-01-23T11:46:33.693Z,4.30
2023-01-23T11:49:07.607Z,4.40
2023-01-23T11:51:47.565Z,4.50
2023-01-23T11:54:32.968Z,4.40
2023-01-23T11:56:59.717Z,4.40
2023-01-23T11:59:36.014Z,4.40
2023-01-23T12:02:13.881Z,4.50
2023-01-23T12:04:46.416Z,4.50
2023-01-23T12:07:21.180Z,4.50
2023-01-23T12:10:04.588Z,4.50
2023-01-23T12:12:31.232Z,4.60
2023-01-23T12:15:23.317Z,4.50
2023-01-23T12:17:59.351Z,4.50
2023-01-23T12:20:30.148Z,4.50
2023-01-23T12:23:12.901Z,4.50
2023-01-23T12:25:40.822Z,4.50
2023-01-23T12:28:10.468Z,4.40
2023-01-23T12:30:44.017Z,4.40
2023-01-23T12:33:16.835Z,4.40
2023-01-23T12:35:43.566Z,4.50
2023-01-23T12:38:16.167Z,4.50
2023-01-23T12:40:53.989Z,4.50
2023-01-23T12:43:23.639Z,4.40
2023-01-23T12:45:58.184Z,4.30
2023-01-23T12:48:28.498Z,4.30
2023-01-23T12:50:57.868Z,4.40
2023-01-23T12:53:24.837Z,4.50
2023-01-23T12:55:51.366Z,4.50
2023-01-23T12:58:18.305Z,4.50
2023-01-23T13:00:48.082Z,4.50
2023-01-23T13:03:44.920Z,4.50
2023-01-23T13:06:24.709Z,4.60
2023-01-23T13:09:12.056Z,4.70
2023-01-23T13:11:50.358Z,4.60
2023-01-23T13:14:20.760Z,4.70
2023-01-23T13:16:48.680Z,4.70
2023-01-23T13:19:40.818Z,4.60
2023-01-23T13:22:27.266Z,4.70
2023-01-23T13:25:15.099Z,4.60
2023-01-23T13:27:46.545Z,4.50
2023-01-23T13:30:26.124Z,4.40
2023-01-23T13:32:54.353Z,4.30
2023-01-23T13:35:39.837Z,4.40
2023-01-23T13:38:32.058Z,4.30
2023-01-23T13:41:04.799Z,4.30
2023-01-23T13:43:54.611Z,4.30
2023-01-23T13:46:33.016Z,4.40
2023-01-23T14:21:48.614Z,4.30
2023-01-23T14:24:21.000Z,4.30
2023-01-23T14:26:51.829Z,4.40
2023-01-23T14:29:22.979Z,4.20
2023-01-23T14:31:51.238Z,4.20
2023-01-23T14:34:19.312Z,4.20
2023-01-23T14:36:47.244Z,4.20
2023-01-23T14:39:33.412Z,4.20
2023-01-23T14:42:02.636Z,4.10
2023-01-23T14:44:33.506Z,4.10
2023-01-23T14:47:00.808Z,4.10
2023-01-23T14:49:29.651Z,4.10
2023-01-23T14:51:57.907Z,4.10
2023-01-23T14:54:26.425Z,4.10
2023-01-23T14:56:57.352Z,4.10
2023-01-23T14:59:23.968Z,4.10
2023-01-23T15:01:57.088Z,4.00
2023-01-23T15:04:25.318Z,4.00
2023-01-23T15:06:53.628Z,4.00
2023-01-23T15:09:23.852Z,4.00
2023-01-23T15:11:50.687Z,4.00
2023-01-23T15:16:47.993Z,3.90
2023-01-23T15:19:17.698Z,3.90
2023-01-23T15:21:44.616Z,3.90
2023-01-23T15:24:14.243Z,3.90
2023-01-23T15:26:42.069Z,3.90
2023-01-23T15:29:10.561Z,3.90
2023-01-23T15:31:40.265Z,3.90
2023-01-23T15:34:16.604Z,3.90
2023-01-23T15:36:51.192Z,3.90
2023-01-23T15:39:36.619Z,3.90
2023-01-23T15:42:05.163Z,3.90
2023-01-23T15:44:32.865Z,3.80
2023-01-23T15:47:04.344Z,3.80
2023-01-23T15:49:32.049Z,3.80
2023-01-23T15:51:59.661Z,3.80
2023-01-23T15:54:28.662Z,3.80
2023-01-23T15:57:06.665Z,3.70
2023-01-23T15:59:34.930Z,3.70
2023-01-23T16:02:04.448Z,3.70
2023-01-23T16:04:31.301Z,3.70
2023-01-23T16:07:00.272Z,3.70
2023-01-23T16:09:30.665Z,3.70
2023-01-23T16:11:59.059Z,3.70
2023-01-23T16:16:56.692Z,3.60
2023-01-23T16:19:27.394Z,3.60
2023-01-23T16:22:04.290Z,3.70
2023-01-23T16:24:34.988Z,3.60
2023-01-23T16:27:02.728Z,3.60
2023-01-23T16:29:30.746Z,3.60
2023-01-23T16:31:59.290Z,3.60
2023-01-23T16:34:26.701Z,3.60
2023-01-23T16:36:58.119Z,3.60
2023-01-23T16:39:30.415Z,3.60
2023-01-23T16:41:57.355Z,3.60
2023-01-23T16:44:24.270Z,3.60
2023-01-23T16:46:52.560Z,3.60
2023-01-23T16:49:19.998Z,3.60
2023-01-23T16:51:54.701Z,3.60
2023-01-23T16:54:23.879Z,3.60
2023-01-23T16:56:51.712Z,3.50
2023-01-23T16:59:20.545Z,3.50
2023-01-23T17:01:48.666Z,3.60
2023-01-23T17:04:17.416Z,3.50
2023-01-23T17:06:44.311Z,3.50
2023-01-23T17:09:14.913Z,3.50
2023-01-23T17:11:46.059Z,3.50
2023-01-23T17:14:15.821Z,3.50
2023-01-23T17:16:43.364Z,3.50
2023-01-23T17:19:16.833Z,3.50
2023-01-23T17:21:43.681Z,3.50
2023-01-23T17:24:14.456Z,3.50
2023-01-23T17:26:41.195Z,3.50
2023-01-23T17:29:07.914Z,3.50
2023-01-23T17:31:34.929Z,3.50
2023-01-23T17:34:02.690Z,3.60
2023-01-23T17:36:29.604Z,3.60
2023-01-23T17:38:57.422Z,3.60
2023-01-23T17:41:24.475Z,3.60
2023-01-23T17:43:52.643Z,3.50
2023-01-23T17:46:29.071Z,3.50
2023-01-23T17:48:56.194Z,3.50
2023-01-23T17:51:25.554Z,3.60
2023-01-23T17:53:52.489Z,3.50
2023-01-23T17:56:19.222Z,3.50
2023-01-23T17:58:45.831Z,3.50
2023-01-23T18:01:20.462Z,3.50
2023-01-23T18:03:48.079Z,3.50
2023-01-23T18:06:14.778Z,3.50
2023-01-23T18:08:42.269Z,3.50
2023-01-23T18:11:20.679Z,3.40
2023-01-23T18:13:47.287Z,3.40
2023-01-23T18:16:23.436Z,3.40
2023-01-23T18:19:13.354Z,3.40
2023-01-23T18:21:40.202Z,3.40
2023-01-23T18:24:14.424Z,3.40
2023-01-23T18:26:41.186Z,3.40
2023-01-23T18:29:30.809Z,3.40
2023-01-23T18:32:15.100Z,3.40
2023-01-23T18:34:50.880Z,3.40
2023-01-23T18:37:23.282Z,3.40
2023-01-23T18:40:04.456Z,3.30
2023-01-23T18:42:35.576Z,3.30
2023-01-23T18:45:04.734Z,3.40
2023-01-23T18:47:31.809Z,3.40
2023-01-23T18:49:58.722Z,3.30
2023-01-23T18:52:25.598Z,3.30
2023-01-23T18:54:58.738Z,3.40
2023-01-23T18:57:26.001Z,3.30
2023-01-23T18:59:57.222Z,3.30
2023-01-23T19:02:40.176Z,3.30
2023-01-23T19:05:22.408Z,3.30
2023-01-23T19:07:50.192Z,3.30
2023-01-23T19:10:24.524Z,3.30
2023-01-23T19:13:09.488Z,3.30
2023-01-23T19:15:39.257Z,3.40
2023-01-23T19:18:12.596Z,3.30
2023-01-23T19:20:52.108Z,3.40
2023-01-23T19:23:25.286Z,3.30
2023-01-23T19:25:54.736Z,3.40
2023-01-23T19:28:21.709Z,3.30
2023-01-23T19:30:48.694Z,3.30
2023-01-23T19:33:16.868Z,3.30
2023-01-23T19:35:47.914Z,3.30
2023-01-23T19:38:17.941Z,3.30
2023-01-23T19:40:47.566Z,3.30
2023-01-23T19:43:15.535Z,3.30
2023-01-23T19:45:43.348Z,3.30
2023-01-23T19:48:10.633Z,3.30
2023-01-23T19:50:39.152Z,3.30
2023-01-23T19:53:06.250Z,3.30
2023-01-23T19:55:34.387Z,3.30
2023-01-23T19:58:01.288Z,3.30
2023-01-23T20:00:29.759Z,3.30
2023-01-23T20:02:56.807Z,3.40
2023-01-23T20:05:24.030Z,3.30
2023-01-23T20:07:51.017Z,3.40
2023-01-23T20:10:18.108Z,3.40
2023-01-23T20:12:52.227Z,3.40
2023-01-23T20:15:21.012Z,3.30
2023-01-23T20:17:48.229Z,3.40
2023-01-23T20:20:15.325Z,3.40
2023-01-23T20:22:43.099Z,3.40
2023-01-23T20:25:16.283Z,3.40
2023-01-23T20:27:44.043Z,3.40
2023-01-23T20:30:18.858Z,3.40
2023-01-23T20:32:46.056Z,3.40
2023-01-23T20:35:12.963Z,3.30
2023-01-23T20:37:39.730Z,3.30
2023-01-23T20:40:08.856Z,3.40
2023-01-23T20:42:35.719Z,3.40
2023-01-23T20:45:02.729Z,3.40
2023-01-23T20:47:29.587Z,3.30
2023-01-23T20:49:56.468Z,3.40
2023-01-23T20:52:42.198Z,3.40
2023-01-23T20:55:09.156Z,3.30
2023-01-23T20:57:54.274Z,3.30
2023-01-23T21:00:21.515Z,3.30
2023-01-23T21:02:48.422Z,3.30
2023-01-23T21:05:15.176Z,3.30
2023-01-23T21:07:41.949Z,3.30
2023-01-23T21:10:09.039Z,3.30
2023-01-23T21:12:35.960Z,3.30
2023-01-23T21:15:03.014Z,3.30
2023-01-23T21:17:29.889Z,3.30
2023-01-23T21:19:56.711Z,3.30
2023-01-23T21:22:23.599Z,3.30
2023-01-23T21:24:50.377Z,3.30
2023-01-23T21:27:19.865Z,3.30
2023-01-23T21:29:47.834Z,3.30
2023-01-23T21:32:14.642Z,3.30
2023-01-23T21:34:41.447Z,3.30
2023-01-23T21:37:10.868Z,3.30
2023-01-23T21:39:38.306Z,3.30
2023-01-23T21:42:05.264Z,3.30
2023-01-23T21:44:35.820Z,3.30
2023-01-23T21:47:03.193Z,3.30
2023-01-23T21:49:31.415Z,3.20
2023-01-23T21:51:58.319Z,3.30
2023-01-23T21:54:27.346Z,3.30
2023-01-23T21:56:54.202Z,3.30
2023-01-23T21:59:21.081Z,3.30
2023-01-23T22:01:50.214Z,3.30
2023-01-23T22:04:24.053Z,3.30
2023-01-23T22:06:53.446Z,3.20
2023-01-23T22:09:24.833Z,3.20
2023-01-23T22:11:52.619Z,3.30
2023-01-23T22:14:19.468Z,3.20
2023-01-23T22:16:50.690Z,3.30
2023-01-23T22:19:19.429Z,3.30
2023-01-23T22:21:46.884Z,3.30
2023-01-23T22:24:14.273Z,3.30
2023-01-23T22:26:41.310Z,3.30
2023-01-23T22:29:08.656Z,3.30
2023-01-23T22:31:35.832Z,3.30
2023-01-23T22:34:03.108Z,3.30
2023-01-23T22:36:30.135Z,3.20
2023-01-23T22:38:57.048Z,3.30
2023-01-23T22:41:23.888Z,3.30
2023-01-23T22:43:54.514Z,3.20
2023-01-23T22:46:21.705Z,3.20
2023-01-23T22:48:48.451Z,3.20
2023-01-23T22:51:16.594Z,3.20
2023-01-23T22:53:43.515Z,3.20
2023-01-23T22:56:10.545Z,3.30
2023-01-23T22:58:39.661Z,3.30
2023-01-23T23:01:11.409Z,3.20
2023-01-23T23:03:38.281Z,3.20
2023-01-23T23:06:06.233Z,3.30
2023-01-23T23:08:33.641Z,3.30
2023-01-23T23:11:10.579Z,3.30
2023-01-23T23:13:38.469Z,3.30
2023-01-23T23:16:06.750Z,3.30
2023-01-23T23:18:33.943Z,3.20
2023-01-23T23:21:01.540Z,3.30
2023-01-23T23:23:28.646Z,3.30
2023-01-23T23:25:59.047Z,3.30
2023-01-23T23:28:26.470Z,3.30
2023-01-23T23:30:53.599Z,3.30
2023-01-23T23:33:20.920Z,3.30
2023-01-23T23:35:47.837Z,3.30
2023-01-23T23:38:15.038Z,3.20
2023-01-23T23:40:42.032Z,3.30
2023-01-23T23:43:11.843Z,3.30
2023-01-23T23:45:47.196Z,3.20
2023-01-23T23:48:14.021Z,3.20
2023-01-23T23:50:42.574Z,3.20
2023-01-23T23:53:09.316Z,3.20
2023-01-23T23:55:38.723Z,3.20
2023-01-23T23:58:05.471Z,3.20
